Blue Hill, Nebraska
Current Conditions -  °F | °C
As of 7:11 AM on Wednesday 26 Nov 2014 (Local Time) from KHSI Reporting Station
Overcast Overcast  
Wind Chill: 20°   Ceiling: 2900
Heat Index: 33°   Visibility: 10mi
Dew Point: 22°   Wind: 28mph
Humidity: 64%   Direction: 330°NNW
Pressure: 30.03"   Gusts: 41mph
Location:  40.33°N, 98.45°W
Report Text: KHSI 261311Z AUTO 33024G36KT 10SM BKN029 OVC047 01/M06 A3003 RMK AO2 PK WND 32036/1308 T00061056
Loading
Personal Weather Stations






























Interactive Weather Map New forecast layout! Learn more

10-Day Weather Forecast

Advertisements
Track Severe Weather on mobile